Time;durP1;ratioP1;P1;durP2;ratioP2;P2;SDS_P1;SDS_P2;PMS_P1;PMS_P2;Temp;Humidity;BMP_temperature;BMP_pressure;BME280_temperature;BME280_humidity;BME280_pressure;Samples;Min_cycle;Max_cycle;Signal;HPM_P1;HPM_P2
2021/10/24 00:01:20;;;;;;;13.82;8.80;;;7.40;99.90;;;;;;5067558;28;20700;-87
2021/10/24 00:03:47;;;;;;;16.50;8.50;;;7.30;99.90;;;;;;5066692;28;20234;-84
2021/10/24 00:06:14;;;;;;;10.88;7.90;;;7.40;99.90;;;;;;5065077;28;20232;-84
2021/10/24 00:08:41;;;;;;;15.32;10.55;;;7.40;99.90;;;;;;5069014;28;20207;-86
2021/10/24 00:11:08;;;;;;;23.05;11.07;;;7.40;99.90;;;;;;5064996;28;20199;-87
2021/10/24 00:13:35;;;;;;;16.67;10.35;;;7.30;99.90;;;;;;5063784;28;20211;-83
2021/10/24 00:16:02;;;;;;;19.33;10.10;;;6.40;99.90;;;;;;5063575;28;20227;-86
2021/10/24 00:18:31;;;;;;;20.73;12.30;;;7.10;99.90;;;;;;5068185;28;20698;-84
2021/10/24 00:20:59;;;;;;;26.83;13.90;;;7.80;99.90;;;;;;5064146;28;20222;-84
2021/10/24 00:23:25;;;;;;;31.77;15.30;;;8.70;99.90;;;;;;5062449;28;20208;-84
2021/10/24 00:25:52;;;;;;;18.55;13.38;;;7.30;99.90;;;;;;5062650;28;20344;-83
2021/10/24 00:28:19;;;;;;;22.42;12.52;;;6.80;99.90;;;;;;5063006;28;20206;-79
2021/10/24 00:30:46;;;;;;;19.20;12.27;;;7.30;99.90;;;;;;5065370;28;20208;-86
2021/10/24 00:33:12;;;;;;;17.27;11.27;;;6.90;99.90;;;;;;5064918;28;20625;-83
2021/10/24 00:35:40;;;;;;;21.88;11.48;;;7.00;99.90;;;;;;5064608;28;20678;-86
2021/10/24 00:38:07;;;;;;;23.42;12.85;;;7.00;99.90;;;;;;5067765;28;20219;-88
2021/10/24 00:40:34;;;;;;;25.70;14.05;;;7.00;99.90;;;;;;5064047;28;20199;-86
2021/10/24 00:43:01;;;;;;;24.75;12.85;;;6.80;99.90;;;;;;5060951;28;20207;-85
2021/10/24 00:45:28;;;;;;;17.27;10.77;;;7.70;99.90;;;;;;5062523;28;20227;-86
2021/10/24 00:47:55;;;;;;;19.25;11.85;;;7.10;99.90;;;;;;5060828;28;20222;-83
2021/10/24 00:50:26;;;;;;;17.48;12.05;;;6.60;99.90;;;;;;5071705;28;20260;-85
2021/10/24 00:52:54;;;;;;;31.33;16.60;;;6.90;99.90;;;;;;5075804;28;20184;-88
2021/10/24 00:55:24;;;;;;;42.67;25.02;;;7.20;99.90;;;;;;5071466;28;20667;-87
2021/10/24 00:57:51;;;;;;;29.00;16.92;;;6.80;99.90;;;;;;5076532;28;20230;-85
2021/10/24 01:00:19;;;;;;;21.42;13.70;;;7.10;99.90;;;;;;5073790;28;20256;-84
2021/10/24 01:02:45;;;;;;;15.38;9.38;;;7.20;99.90;;;;;;5064083;28;20207;-86
2021/10/24 01:05:13;;;;;;;19.20;11.07;;;7.10;99.90;;;;;;5061474;28;20259;-84
2021/10/24 01:07:42;;;;;;;20.90;11.50;;;6.90;99.90;;;;;;5061613;28;20205;-85
2021/10/24 01:10:15;;;;;;;20.02;12.02;;;7.00;99.90;;;;;;5074957;28;20290;-87
2021/10/24 01:12:45;;;;;;;18.88;11.60;;;6.90;99.90;;;;;;5065889;28;20200;-86
2021/10/24 01:15:12;;;;;;;20.30;11.55;;;6.20;99.90;;;;;;5063846;28;20223;-88
2021/10/24 01:17:40;;;;;;;27.40;16.05;;;7.40;99.90;;;;;;5069721;28;20191;-88
2021/10/24 01:20:09;;;;;;;22.98;14.30;;;7.20;99.90;;;;;;5076639;28;20211;-92
2021/10/24 01:22:43;;;;;;;18.92;11.20;;;7.20;99.90;;;;;;5071024;28;20204;-90
2021/10/24 01:25:26;;;;;;;25.08;13.68;;;7.10;99.90;;;;;;5074422;28;20234;-92
2021/10/24 01:30:31;;;;;;;24.50;13.60;;;;;;;;;;4886920;26;20226;-93
2021/10/24 01:33:16;;;;;;;27.15;13.18;;;7.10;99.90;;;;;;5064194;28;20207;-90
2021/10/24 01:36:00;;;;;;;19.67;10.63;;;7.10;99.90;;;;;;5062729;28;20253;-86
2021/10/24 01:38:29;;;;;;;16.55;10.88;;;7.10;99.90;;;;;;5060591;28;20263;-86
2021/10/24 01:40:57;;;;;;;22.58;14.68;;;6.70;99.90;;;;;;5060162;28;20578;-87
2021/10/24 01:43:25;;;;;;;13.98;10.80;;;7.10;99.90;;;;;;5059803;28;20207;-87
2021/10/24 01:45:52;;;;;;;17.77;9.70;;;7.10;99.90;;;;;;5056771;28;20595;-84
2021/10/24 01:48:19;;;;;;;23.33;13.40;;;6.90;99.90;;;;;;5058805;28;20230;-83
2021/10/24 01:50:49;;;;;;;10.73;7.97;;;6.90;99.90;;;;;;5059457;28;20234;-86
2021/10/24 01:53:17;;;;;;;11.38;7.50;;;7.10;99.90;;;;;;5063681;28;20208;-85
2021/10/24 01:55:45;;;;;;;22.17;8.75;;;6.90;99.90;;;;;;5067171;28;20310;-87
2021/10/24 01:58:12;;;;;;;11.90;8.50;;;6.10;99.90;;;;;;5063166;28;20211;-87
2021/10/24 02:00:40;;;;;;;32.88;14.05;;;6.80;99.90;;;;;;5063430;28;20207;-87
2021/10/24 02:03:07;;;;;;;18.17;8.50;;;6.00;99.90;;;;;;5059219;28;20199;-87
2021/10/24 02:05:33;;;;;;;11.48;7.57;;;6.40;99.90;;;;;;5059881;28;20365;-87
2021/10/24 02:08:00;;;;;;;18.17;7.93;;;5.50;99.90;;;;;;5059367;28;20212;-85
2021/10/24 02:10:27;;;;;;;11.48;7.05;;;6.40;99.90;;;;;;5059356;28;20200;-88
2021/10/24 02:12:55;;;;;;;11.98;7.55;;;6.20;99.90;;;;;;5062250;28;20208;-86
2021/10/24 02:15:22;;;;;;;8.00;6.72;;;6.30;99.90;;;;;;5061585;28;20258;-88
2021/10/24 02:17:49;;;;;;;12.30;6.60;;;5.90;99.90;;;;;;5066810;28;20187;-87
2021/10/24 02:20:16;;;;;;;14.75;7.82;;;6.40;99.90;;;;;;5064598;28;20243;-87
2021/10/24 02:22:42;;;;;;;9.88;6.55;;;7.60;99.90;;;;;;5069517;28;20253;-86
2021/10/24 02:25:10;;;;;;;11.95;7.47;;;6.30;99.90;;;;;;5074943;28;20211;-83
2021/10/24 02:27:48;;;;;;;8.65;6.75;;;6.80;99.90;;;;;;5075314;28;20265;-91
2021/10/24 02:30:17;;;;;;;7.90;6.25;;;6.70;99.90;;;;;;5071291;28;20211;-84
2021/10/24 02:32:44;;;;;;;10.48;6.75;;;6.90;99.90;;;;;;5080670;28;20206;-86
2021/10/24 02:35:13;;;;;;;7.55;5.95;;;6.70;99.90;;;;;;5080942;28;20204;-84
2021/10/24 02:37:40;;;;;;;12.98;6.15;;;6.20;99.90;;;;;;5080123;28;20188;-85
2021/10/24 02:40:08;;;;;;;11.23;6.40;;;5.70;99.90;;;;;;5079385;28;20230;-87
2021/10/24 02:42:37;;;;;;;14.13;8.15;;;6.70;99.90;;;;;;5078868;28;20199;-82
2021/10/24 02:55:59;;;;;;;10.50;7.10;;;6.60;99.90;;;;;;5091350;28;20233;-85
2021/10/24 02:58:49;;;;;;;10.10;6.82;;;6.60;99.90;;;;;;5023887;28;20220;-86
2021/10/24 03:04:50;;;;;;;11.43;7.28;;;6.70;99.90;;;;;;5059257;28;20227;-87
2021/10/24 03:09:48;;;;;;;11.85;6.75;;;;;;;;;;5050012;28;20212;-86
2021/10/24 03:12:14;;;;;;;11.27;6.88;;;6.70;99.90;;;;;;5044017;28;20204;-85
2021/10/24 03:14:45;;;;;;;10.10;7.38;;;6.80;99.90;;;;;;5051278;28;20192;-87
2021/10/24 03:17:23;;;;;;;8.82;6.65;;;6.90;99.90;;;;;;5047673;28;20216;-87
2021/10/24 03:19:56;;;;;;;8.68;6.13;;;6.80;99.90;;;;;;5040640;28;20720;-87
2021/10/24 03:22:23;;;;;;;8.65;7.05;;;;;;;;;;5039804;28;20239;-88
2021/10/24 03:24:49;;;;;;;6.68;5.78;;;6.90;99.90;;;;;;5041841;28;20215;-89
2021/10/24 03:27:16;;;;;;;8.25;6.15;;;6.80;99.90;;;;;;5042002;28;20204;-86
2021/10/24 03:29:42;;;;;;;9.48;6.93;;;6.80;99.90;;;;;;5039292;28;20204;-86
2021/10/24 03:32:10;;;;;;;8.63;6.10;;;6.60;99.90;;;;;;5041305;28;20208;-87
2021/10/24 03:34:37;;;;;;;7.55;5.72;;;6.60;99.90;;;;;;5040719;28;20334;-87
2021/10/24 03:37:04;;;;;;;8.20;5.50;;;6.60;99.90;;;;;;5040881;28;20244;-87
2021/10/24 03:39:30;;;;;;;15.25;6.38;;;6.70;99.90;;;;;;5044088;28;20238;-87
2021/10/24 03:41:57;;;;;;;7.90;5.32;;;6.60;99.90;;;;;;5059298;28;20191;-87
2021/10/24 03:44:24;;;;;;;11.60;6.45;;;6.60;99.90;;;;;;5059373;28;20188;-88
2021/10/24 03:46:51;;;;;;;6.13;5.40;;;;;;;;;;5053557;28;20231;-88
2021/10/24 03:49:18;;;;;;;11.45;7.13;;;6.50;99.90;;;;;;5043477;28;20235;-87
2021/10/24 03:51:59;;;;;;;18.20;9.57;;;6.60;99.90;;;;;;5044304;28;20201;-86
2021/10/24 03:54:36;;;;;;;14.45;8.45;;;6.70;99.90;;;;;;5044325;28;20202;-86
2021/10/24 03:57:20;;;;;;;9.40;7.32;;;;;;;;;;5039174;28;20230;-87
2021/10/24 04:02:59;;;;;;;6.68;5.82;;;6.60;99.90;;;;;;5038030;28;20196;-87
2021/10/24 04:05:29;;;;;;;8.73;6.75;;;6.50;99.90;;;;;;5038027;28;20189;-87
2021/10/24 04:07:56;;;;;;;11.30;6.70;;;;;;;;;;5038057;28;20232;-87
2021/10/24 04:10:25;;;;;;;11.45;5.40;;;6.50;99.90;;;;;;5039016;28;20184;-87
2021/10/24 04:12:52;;;;;;;10.20;7.55;;;6.50;99.90;;;;;;5040816;28;20239;-83
2021/10/24 04:15:21;;;;;;;12.65;5.95;;;6.50;99.90;;;;;;5040754;28;20258;-88
2021/10/24 04:17:48;;;;;;;8.30;6.07;;;;;;;;;;5046010;28;20224;-88
2021/10/24 04:20:19;;;;;;;7.95;5.80;;;6.50;99.90;;;;;;5044567;28;20221;-88
2021/10/24 04:22:48;;;;;;;13.57;9.18;;;6.40;99.90;;;;;;5053324;28;20204;-87
2021/10/24 04:25:16;;;;;;;11.20;7.68;;;;;;;;;;5055724;28;20303;-87
2021/10/24 04:27:43;;;;;;;12.45;7.47;;;6.50;99.90;;;;;;5045576;28;20659;-88
2021/10/24 04:30:12;;;;;;;9.30;7.05;;;6.50;99.90;;;;;;5042292;28;20205;-88
2021/10/24 04:32:40;;;;;;;9.18;6.80;;;6.40;99.90;;;;;;5040930;28;20674;-87
2021/10/24 04:35:08;;;;;;;8.50;6.13;;;6.30;99.90;;;;;;5041039;28;20204;-86
2021/10/24 04:37:35;;;;;;;13.77;7.00;;;6.20;99.90;;;;;;5039574;28;20224;-88
2021/10/24 04:40:04;;;;;;;8.45;6.80;;;6.00;99.90;;;;;;5040294;28;20224;-87
2021/10/24 04:42:30;;;;;;;8.85;6.43;;;6.20;99.90;;;;;;5040995;28;20207;-89
2021/10/24 04:44:57;;;;;;;7.72;6.97;;;5.60;99.90;;;;;;5046866;28;20204;-86
2021/10/24 04:47:24;;;;;;;9.52;6.45;;;;;;;;;;5050087;28;20204;-85
2021/10/24 04:49:51;;;;;;;15.50;7.07;;;6.20;99.90;;;;;;5039571;28;20575;-88
2021/10/24 04:52:17;;;;;;;13.30;7.55;;;6.20;99.90;;;;;;5043106;28;20200;-88
2021/10/24 04:54:44;;;;;;;7.03;6.20;;;6.10;99.90;;;;;;5045096;28;20215;-87
2021/10/24 04:57:12;;;;;;;10.70;6.25;;;6.10;99.90;;;;;;5048117;28;20203;-85
2021/10/24 04:59:38;;;;;;;9.55;6.55;;;6.00;99.90;;;;;;5057103;28;20245;-84
2021/10/24 05:02:05;;;;;;;15.80;7.70;;;5.90;99.90;;;;;;5057714;28;20187;-86
2021/10/24 05:04:32;;;;;;;12.82;8.60;;;5.90;99.90;;;;;;5041284;28;20204;-86
2021/10/24 05:06:58;;;;;;;9.40;7.53;;;5.90;99.90;;;;;;5041626;28;20211;-87
2021/10/24 05:09:25;;;;;;;8.15;7.35;;;5.80;99.90;;;;;;5039770;28;20263;-87
2021/10/24 05:11:51;;;;;;;10.50;7.15;;;5.80;99.90;;;;;;5045198;28;20200;-85
2021/10/24 05:14:19;;;;;;;12.73;7.32;;;5.80;99.90;;;;;;5051665;28;20345;-86
2021/10/24 05:16:46;;;;;;;15.68;7.60;;;5.70;99.90;;;;;;5052389;28;20207;-86
2021/10/24 05:19:13;;;;;;;10.60;7.20;;;;;;;;;;5047047;28;20275;-86
2021/10/24 05:21:39;;;;;;;8.25;7.20;;;5.70;99.90;;;;;;5039377;28;20619;-87
2021/10/24 05:24:06;;;;;;;9.95;6.75;;;5.50;99.90;;;;;;5037899;28;20232;-88
2021/10/24 05:26:33;;;;;;;9.80;6.95;;;5.50;99.90;;;;;;5038056;28;20211;-88
2021/10/24 05:29:03;;;;;;;13.27;7.45;;;5.40;99.90;;;;;;5038241;28;20228;-88
2021/10/24 05:31:31;;;;;;;10.63;6.90;;;5.40;99.90;;;;;;5038172;28;20208;-87
2021/10/24 05:33:58;;;;;;;10.07;6.75;;;5.40;99.90;;;;;;5037652;28;20204;-88
2021/10/24 05:36:24;;;;;;;9.70;7.47;;;5.10;99.90;;;;;;5036683;28;20204;-87
2021/10/24 05:38:51;;;;;;;21.65;8.13;;;5.40;99.90;;;;;;5038266;28;20224;-86
2021/10/24 05:41:18;;;;;;;11.05;7.60;;;;;;;;;;5044918;28;20639;-87
2021/10/24 05:43:45;;;;;;;12.88;7.70;;;5.30;99.90;;;;;;5036156;28;20211;-86
2021/10/24 05:46:11;;;;;;;9.85;8.32;;;5.30;99.90;;;;;;5037281;28;20207;-85
2021/10/24 05:48:39;;;;;;;11.38;7.78;;;5.20;99.90;;;;;;5037035;28;20591;-85
2021/10/24 05:51:09;;;;;;;13.57;7.22;;;5.20;99.90;;;;;;5037900;28;20228;-86
2021/10/24 05:53:35;;;;;;;9.13;7.15;;;5.30;99.90;;;;;;5040173;28;20296;-86
2021/10/24 05:56:02;;;;;;;16.75;8.02;;;5.00;99.90;;;;;;5055637;28;20200;-86
2021/10/24 05:58:29;;;;;;;10.73;8.25;;;;;;;;;;5057398;28;20204;-89
2021/10/24 06:00:56;;;;;;;11.77;7.57;;;;;;;;;;5040264;28;20683;-86
2021/10/24 06:03:23;;;;;;;13.93;7.90;;;;;;;;;;5037063;28;20241;-87
2021/10/24 06:05:51;;;;;;;12.68;7.93;;;5.40;99.90;;;;;;5039422;28;20265;-87
2021/10/24 06:08:24;;;;;;;14.25;7.78;;;5.40;99.90;;;;;;5039401;28;20599;-86
2021/10/24 06:10:54;;;;;;;14.10;9.20;;;5.40;99.90;;;;;;5041416;28;20199;-87
2021/10/24 06:13:20;;;;;;;14.20;10.30;;;5.30;99.90;;;;;;5040260;28;20207;-86
2021/10/24 06:15:47;;;;;;;15.40;9.40;;;5.40;99.90;;;;;;5039778;28;20204;-86
2021/10/24 06:18:14;;;;;;;21.02;11.70;;;5.30;99.90;;;;;;5040039;28;20327;-87
2021/10/24 06:20:44;;;;;;;21.27;13.75;;;5.40;99.90;;;;;;5040361;28;20216;-86
2021/10/24 06:23:12;;;;;;;19.90;12.43;;;5.20;99.90;;;;;;5041065;28;20208;-87
2021/10/24 06:25:38;;;;;;;28.77;12.77;;;5.30;99.90;;;;;;5040498;28;20208;-85
2021/10/24 06:28:05;;;;;;;19.55;10.95;;;5.30;99.90;;;;;;5045230;28;20224;-86
2021/10/24 06:30:32;;;;;;;15.43;10.18;;;5.20;99.90;;;;;;5046077;28;20564;-87
2021/10/24 06:32:59;;;;;;;19.25;11.85;;;5.20;99.90;;;;;;5047183;28;20203;-87
2021/10/24 06:35:26;;;;;;;14.43;10.60;;;;;;;;;;5040817;28;20245;-87
2021/10/24 06:37:53;;;;;;;15.55;10.30;;;5.40;99.90;;;;;;5040995;28;20314;-86
2021/10/24 06:40:21;;;;;;;11.68;8.95;;;5.40;99.90;;;;;;5040639;28;20219;-86
2021/10/24 06:42:48;;;;;;;10.55;9.40;;;5.40;99.90;;;;;;5040180;28;20235;-86
2021/10/24 06:45:15;;;;;;;11.30;8.35;;;;;;;;;;5039596;28;20213;-86
2021/10/24 06:47:42;;;;;;;12.10;9.55;;;5.40;99.90;;;;;;5039583;28;20361;-85
2021/10/24 06:50:11;;;;;;;10.13;8.77;;;5.50;99.90;;;;;;5039183;28;20204;-87
2021/10/24 06:52:38;;;;;;;9.75;8.32;;;5.40;99.90;;;;;;5037994;28;20685;-84
2021/10/24 06:55:05;;;;;;;14.63;8.60;;;5.50;99.90;;;;;;5037692;28;20207;-87
2021/10/24 06:57:45;;;;;;;14.57;8.32;;;5.60;99.90;;;;;;5038404;28;20278;-85
2021/10/24 07:00:13;;;;;;;21.48;10.82;;;5.60;99.90;;;;;;5039415;28;20207;-86
2021/10/24 07:02:40;;;;;;;14.30;10.27;;;;;;;;;;5041574;28;20201;-86
2021/10/24 07:05:07;;;;;;;14.00;9.30;;;5.70;99.90;;;;;;5042569;28;20246;-87
2021/10/24 07:07:34;;;;;;;16.77;9.75;;;5.90;99.90;;;;;;5041899;28;20224;-86
2021/10/24 07:10:00;;;;;;;10.48;9.00;;;5.70;99.90;;;;;;5039698;28;20242;-84
2021/10/24 07:12:27;;;;;;;13.48;8.20;;;;;;;;;;5045034;28;20257;-85
2021/10/24 07:14:55;;;;;;;16.20;11.00;;;5.70;99.90;;;;;;5054807;28;20215;-86
2021/10/24 07:17:22;;;;;;;12.27;9.25;;;;;;;;;;5045031;28;20212;-87
2021/10/24 07:19:49;;;;;;;9.88;8.13;;;;;;;;;;5043738;28;20204;-86
2021/10/24 07:22:16;;;;;;;12.68;8.82;;;;;;;;;;5045274;28;20669;-85
2021/10/24 07:24:43;;;;;;;10.15;7.97;;;5.80;99.90;;;;;;5040430;28;20239;-86
2021/10/24 07:27:10;;;;;;;12.43;8.73;;;;;;;;;;5041159;28;20333;-87
2021/10/24 07:29:37;;;;;;;17.23;8.95;;;;;;;;;;5039588;28;20234;-86
2021/10/24 07:32:06;;;;;;;11.57;8.73;;;5.90;99.90;;;;;;5039983;28;20238;-86
2021/10/24 07:34:32;;;;;;;10.98;8.57;;;5.90;99.90;;;;;;5041637;28;20652;-87
2021/10/24 07:36:59;;;;;;;9.65;7.82;;;5.90;99.90;;;;;;5040705;28;20204;-85
2021/10/24 07:39:27;;;;;;;12.13;9.38;;;6.00;99.90;;;;;;5040732;28;20235;-86
2021/10/24 07:41:54;;;;;;;10.63;7.80;;;;;;;;;;5042907;28;20251;-86
2021/10/24 07:44:21;;;;;;;11.23;9.40;;;6.80;99.90;;;;;;5042969;28;20200;-86
2021/10/24 07:46:49;;;;;;;13.20;8.95;;;6.10;99.90;;;;;;5054659;28;20207;-86
2021/10/24 07:49:17;;;;;;;15.93;9.00;;;6.00;99.90;;;;;;5056666;28;20212;-85
2021/10/24 07:51:45;;;;;;;12.50;9.98;;;;;;;;;;5057849;28;20234;-86
2021/10/24 07:54:12;;;;;;;11.25;8.77;;;6.10;99.90;;;;;;5056572;28;20218;-85
2021/10/24 07:56:39;;;;;;;10.48;9.38;;;;;;;;;;5054078;28;20208;-85
2021/10/24 07:59:05;;;;;;;12.40;8.13;;;6.30;99.90;;;;;;5047559;28;20279;-85
2021/10/24 08:01:32;;;;;;;13.30;9.45;;;6.30;99.90;;;;;;5053371;28;20251;-86
2021/10/24 08:03:59;;;;;;;16.73;9.95;;;6.30;99.90;;;;;;5059494;28;20195;-86
2021/10/24 08:06:27;;;;;;;10.77;8.45;;;6.50;99.90;;;;;;5054326;28;20205;-84
2021/10/24 08:08:54;;;;;;;13.57;8.13;;;;;;;;;;5043298;28;20232;-85
2021/10/24 08:11:20;;;;;;;14.80;8.02;;;6.70;99.90;;;;;;5055925;28;20212;-85
2021/10/24 08:13:47;;;;;;;12.13;7.68;;;6.70;99.90;;;;;;5056354;28;20213;-86
2021/10/24 08:16:14;;;;;;;11.93;8.40;;;6.50;99.90;;;;;;5039851;28;20202;-86
2021/10/24 08:18:40;;;;;;;10.32;7.65;;;6.80;99.90;;;;;;5040110;28;20224;-84
2021/10/24 08:21:07;;;;;;;18.38;8.23;;;;;;;;;;5041237;28;20294;-84
2021/10/24 08:23:35;;;;;;;8.82;7.78;;;6.90;99.90;;;;;;5040958;28;20212;-85
2021/10/24 08:26:02;;;;;;;17.23;7.80;;;7.00;99.90;;;;;;5041104;28;20678;-86
2021/10/24 08:28:29;;;;;;;10.32;7.65;;;;;;;;;;5022752;28;20228;-86
2021/10/24 08:30:56;;;;;;;8.00;6.65;;;7.20;99.90;;;;;;5042261;28;20258;-86
2021/10/24 08:33:23;;;;;;;12.80;7.57;;;7.30;99.90;;;;;;5041946;28;20238;-86
2021/10/24 08:35:50;;;;;;;10.25;7.80;;;7.20;99.90;;;;;;5042539;28;20208;-86
2021/10/24 08:38:18;;;;;;;9.07;6.90;;;7.30;99.90;;;;;;5042123;28;20237;-86
2021/10/24 08:40:47;;;;;;;12.23;7.80;;;7.50;99.90;;;;;;5045713;28;20224;-86
2021/10/24 08:43:17;;;;;;;7.43;6.60;;;7.50;99.90;;;;;;5047277;28;20212;-87
2021/10/24 08:45:44;;;;;;;11.85;7.93;;;7.60;99.90;;;;;;5047733;28;20208;-87
2021/10/24 08:48:11;;;;;;;15.77;7.55;;;;;;;;;;5046378;28;20231;-87
2021/10/24 08:50:38;;;;;;;9.23;7.90;;;7.80;99.90;;;;;;5046162;28;20235;-85
2021/10/24 08:53:06;;;;;;;11.43;8.25;;;8.00;99.90;;;;;;5047663;28;20235;-86
2021/10/24 08:55:33;;;;;;;15.40;7.18;;;8.10;99.90;;;;;;5046247;28;20279;-85
2021/10/24 08:58:01;;;;;;;8.73;6.97;;;7.80;99.90;;;;;;5044164;28;20224;-86
2021/10/24 09:00:28;;;;;;;7.93;6.10;;;8.20;99.90;;;;;;5041334;28;20637;-88
2021/10/24 09:02:56;;;;;;;8.48;7.10;;;8.50;99.90;;;;;;5043015;28;20574;-87
2021/10/24 09:05:32;;;;;;;10.10;7.65;;;8.40;99.90;;;;;;5047381;28;20207;-88
2021/10/24 09:07:59;;;;;;;10.20;6.32;;;8.40;99.90;;;;;;5038081;28;20239;-86
2021/10/24 09:10:37;;;;;;;9.93;6.17;;;8.50;99.90;;;;;;5069985;22;20635;-83
2021/10/24 09:13:06;;;;;;;8.73;6.30;;;8.70;99.90;;;;;;5061914;28;20454;-84
2021/10/24 09:15:50;;;;;;;10.67;7.10;;;8.70;99.90;;;;;;5062149;28;20504;-83
2021/10/24 09:18:18;;;;;;;9.63;6.43;;;9.20;99.90;;;;;;5060454;28;20419;-82
2021/10/24 09:20:45;;;;;;;7.72;5.70;;;8.80;99.90;;;;;;5064910;28;20486;-84
2021/10/24 09:23:15;;;;;;;10.52;6.15;;;8.80;99.90;;;;;;5062893;28;20218;-83
2021/10/24 09:25:54;;;;;;;8.85;6.60;;;7.60;99.90;;;;;;5063048;28;20219;-84
2021/10/24 09:28:27;;;;;;;10.60;5.50;;;8.00;99.90;;;;;;5063929;28;20203;-85
2021/10/24 09:31:04;;;;;;;9.27;6.23;;;9.20;99.90;;;;;;5067523;28;20478;-84
2021/10/24 09:33:44;;;;;;;6.43;5.67;;;8.20;99.90;;;;;;5066192;28;20431;-84
2021/10/24 09:36:11;;;;;;;11.83;6.10;;;9.20;99.90;;;;;;5066325;28;20427;-84
2021/10/24 09:38:40;;;;;;;11.53;6.00;;;9.30;99.90;;;;;;5067266;28;20936;-84
2021/10/24 09:41:06;;;;;;;6.50;5.43;;;8.60;99.90;;;;;;5067353;28;20500;-83
2021/10/24 09:43:35;;;;;;;9.60;5.93;;;8.60;99.90;;;;;;5067523;28;20447;-84
2021/10/24 09:46:14;;;;;;;14.27;5.40;;;9.50;99.90;;;;;;5066856;28;20473;-84
2021/10/24 09:48:44;;;;;;;9.05;5.88;;;9.70;99.90;;;;;;5063707;28;20500;-83
2021/10/24 09:51:12;;;;;;;9.93;6.60;;;9.60;99.90;;;;;;5067636;28;20195;-84
2021/10/24 09:53:40;;;;;;;6.47;5.47;;;;;;;;;;5067929;28;20438;-84
2021/10/24 09:56:09;;;;;;;9.07;5.63;;;9.70;99.90;;;;;;5069501;28;20457;-84
2021/10/24 09:58:39;;;;;;;10.27;5.87;;;9.70;99.90;;;;;;5065748;28;20483;-85
2021/10/24 10:01:11;;;;;;;10.23;6.00;;;9.80;99.90;;;;;;5065828;28;20441;-82
2021/10/24 10:03:45;;;;;;;8.80;7.90;;;;;;;;;;5067414;28;20203;-84
2021/10/24 10:06:12;;;;;;;6.43;5.60;;;;;;;;;;5067017;28;20443;-83
2021/10/24 10:08:43;;;;;;;10.63;5.90;;;;;;;;;;5065950;28;20454;-84
2021/10/24 10:11:13;;;;;;;9.60;6.50;;;9.90;99.90;;;;;;5064753;28;20399;-84
2021/10/24 10:13:43;;;;;;;8.40;5.97;;;9.90;99.90;;;;;;5061205;28;20430;-81
2021/10/24 10:16:12;;;;;;;8.87;5.30;;;9.30;99.90;;;;;;5060145;28;20408;-85
2021/10/24 10:19:02;;;;;;;7.30;4.40;;;10.60;99.90;;;;;;5060927;28;20413;-82
2021/10/24 10:21:32;;;;;;;11.90;4.70;;;10.40;99.90;;;;;;5061320;28;20486;-82
2021/10/24 10:23:59;;;;;;;6.20;5.20;;;10.20;99.90;;;;;;5060507;28;20778;-84
2021/10/24 10:26:38;;;;;;;8.73;5.77;;;9.30;99.90;;;;;;5060462;28;20553;-82
2021/10/24 10:29:07;;;;;;;11.50;7.20;;;9.50;99.90;;;;;;5061020;28;20507;-76
2021/10/24 10:31:35;;;;;;;9.27;5.60;;;9.40;99.90;;;;;;5054179;28;20466;-76
2021/10/24 10:34:05;;;;;;;27.23;13.90;;;10.00;99.90;;;;;;5053980;28;20450;-76
2021/10/24 10:36:57;;;;;;;7.17;4.50;;;10.70;99.90;;;;;;5053373;28;20438;-76
2021/10/24 10:39:38;;;;;;;5.57;4.53;;;10.80;99.90;;;;;;5057980;28;20549;-77
2021/10/24 10:42:45;;;;;;;8.37;4.17;;;10.60;99.90;;;;;;5055880;28;20818;-77
2021/10/24 10:45:28;;;;;;;9.45;4.53;;;10.90;99.90;;;;;;5056623;28;20939;-77
2021/10/24 10:47:57;;;;;;;7.33;4.50;;;10.30;99.90;;;;;;5062395;28;20195;-83
2021/10/24 10:50:45;;;;;;;5.17;4.30;;;10.90;99.90;;;;;;5068165;28;20460;-83
2021/10/24 10:53:19;;;;;;;8.00;4.40;;;11.20;99.90;;;;;;5071252;28;20488;-83
2021/10/24 10:56:14;;;;;;;3.93;3.50;;;11.00;99.90;;;;;;5070958;28;20815;-84
2021/10/24 10:58:43;;;;;;;7.77;3.97;;;11.20;99.90;;;;;;5070925;28;20445;-83
2021/10/24 11:01:19;;;;;;;5.87;3.93;;;11.20;99.90;;;;;;5079046;28;20458;-83
2021/10/24 11:03:47;;;;;;;3.50;3.20;;;11.30;99.90;;;;;;5079836;28;20416;-83
2021/10/24 11:06:48;;;;;;;7.50;3.00;;;11.20;99.90;;;;;;5079896;28;20449;-83
2021/10/24 11:09:46;;;;;;;6.10;4.13;;;11.20;99.90;;;;;;5080902;28;20488;-83
2021/10/24 11:12:40;;;;;;;3.53;3.23;;;11.40;99.90;;;;;;5077999;28;20442;-82
2021/10/24 11:15:30;;;;;;;5.23;3.97;;;11.40;99.90;;;;;;5076562;28;20468;-84
2021/10/24 11:18:04;;;;;;;7.50;3.53;;;11.50;99.90;;;;;;5069298;28;20908;-83
2021/10/24 11:20:47;;;;;;;4.17;3.77;;;11.40;99.90;;;;;;5074216;28;20535;-84
2021/10/24 11:23:24;;;;;;;7.80;2.80;;;11.60;99.90;;;;;;5065687;28;20491;-82
2021/10/24 11:28:34;;;;;;;5.77;2.80;;;;;;;;;;5041924;28;20478;-83
2021/10/24 11:31:04;;;;;;;3.57;2.30;;;11.60;99.90;;;;;;5068655;28;20416;-83
2021/10/24 11:33:49;;;;;;;4.43;2.80;;;11.30;99.90;;;;;;5064253;28;20477;-84
2021/10/24 11:36:29;;;;;;;5.00;2.90;;;11.80;99.90;;;;;;5065803;28;20461;-83
2021/10/24 11:39:24;;;;;;;3.83;3.17;;;11.60;99.90;;;;;;5067372;28;20460;-84
2021/10/24 11:41:51;;;;;;;6.93;4.70;;;11.70;99.90;;;;;;5068039;28;20477;-82
2021/10/24 11:44:18;;;;;;;5.47;3.37;;;11.60;99.90;;;;;;5066244;28;20446;-83
2021/10/24 11:46:47;;;;;;;5.50;3.53;;;11.80;99.90;;;;;;5069509;28;20552;-83
2021/10/24 11:49:17;;;;;;;7.73;3.57;;;11.80;99.90;;;;;;5069083;28;20473;-83
2021/10/24 11:51:50;;;;;;;4.77;2.53;;;;;;;;;;5070948;28;20444;-83
2021/10/24 11:54:17;;;;;;;4.10;2.80;;;;;;;;;;5071969;28;20485;-83
2021/10/24 11:57:16;;;;;;;3.57;2.53;;;;;;;;;;5071646;28;20454;-83
2021/10/24 11:59:51;;;;;;;7.30;2.37;;;;;;;;;;5068662;28;20553;-83
2021/10/24 12:02:19;;;;;;;3.37;2.07;;;;;;;;;;5066997;28;20445;-83
2021/10/24 12:04:50;;;;;;;4.90;2.20;;;;;;;;;;5066833;28;20430;-83
2021/10/24 12:07:18;;;;;;;2.73;2.40;;;;;;;;;;5066298;28;20430;-81
2021/10/24 12:09:50;;;;;;;3.90;2.70;;;;;;;;;;5070995;28;20494;-81
2021/10/24 12:12:19;;;;;;;5.03;2.53;;;;;;;;;;5072260;28;20431;-82
2021/10/24 12:14:52;;;;;;;2.87;2.03;;;;;;;;;;5069171;28;20451;-83
2021/10/24 12:17:20;;;;;;;5.03;2.37;;;;;;;;;;5070498;28;20452;-83
2021/10/24 12:19:51;;;;;;;5.40;2.43;;;;;;;;;;5062327;28;20607;-83
2021/10/24 12:22:20;;;;;;;6.67;2.30;;;;;;;;;;5063692;28;20455;-83
2021/10/24 12:24:50;;;;;;;2.07;1.87;;;;;;;;;;5063515;28;20477;-84
2021/10/24 12:27:19;;;;;;;6.30;2.27;;;;;;;;;;5063432;28;20461;-83
2021/10/24 12:29:58;;;;;;;4.37;2.70;;;;;;;;;;5063151;28;20494;-83
2021/10/24 12:32:25;;;;;;;3.70;2.07;;;;;;;;;;5063499;28;20928;-83
2021/10/24 12:35:02;;;;;;;3.63;2.47;;;;;;;;;;5062443;28;20457;-83
2021/10/24 12:37:31;;;;;;;4.40;2.20;;;;;;;;;;5067417;28;20434;-83
2021/10/24 12:40:17;;;;;;;5.50;2.80;;;;;;;;;;5069164;28;20472;-83
2021/10/24 12:42:46;;;;;;;2.53;2.20;;;;;;;;;;5070410;28;20779;-84
2021/10/24 12:45:18;;;;;;;3.90;2.10;;;;;;;;;;5072113;28;20424;-83
2021/10/24 12:47:56;;;;;;;4.23;2.70;;;;;;;;;;5073331;28;20430;-84
2021/10/24 12:50:37;;;;;;;6.57;3.03;;;;;;;;;;5077120;28;20421;-83
2021/10/24 12:53:06;;;;;;;5.60;2.40;;;;;;;;;;5073098;28;20905;-84
2021/10/24 12:55:35;;;;;;;3.00;1.90;;;;;;;;;;5075147;28;20446;-84
2021/10/24 12:58:02;;;;;;;3.17;1.70;;;;;;;;;;5075121;28;20441;-84
2021/10/24 13:00:30;;;;;;;4.63;2.33;;;;;;;;;;5075385;28;20461;-83
2021/10/24 13:02:57;;;;;;;4.90;2.00;;;;;;;;;;5074064;28;20615;-83
2021/10/24 13:05:26;;;;;;;5.17;2.17;;;;;;;;;;5077585;28;20430;-83
2021/10/24 13:07:54;;;;;;;7.40;2.63;;;;;;;;;;5077941;28;20433;-83
2021/10/24 13:10:21;;;;;;;2.37;1.90;;;;;;;;;;5077684;28;20492;-83
2021/10/24 13:12:49;;;;;;;2.37;1.70;;;;;;;;;;5078454;28;20494;-83
2021/10/24 13:15:16;;;;;;;3.33;1.83;;;;;;;;;;5078533;28;20480;-83
2021/10/24 13:17:43;;;;;;;6.67;2.23;;;;;;;;;;5079255;28;20461;-83
2021/10/24 13:20:10;;;;;;;3.20;1.97;;;;;;;;;;5079095;28;20428;-83
2021/10/24 13:22:57;;;;;;;3.67;2.23;;;;;;;;;;5079190;28;20477;-83
2021/10/24 13:25:28;;;;;;;8.43;2.73;;;;;;;;;;5077818;28;20436;-83
2021/10/24 13:27:57;;;;;;;8.40;2.13;;;;;;;;;;5074956;28;20453;-85
2021/10/24 13:30:24;;;;;;;2.40;1.93;;;;;;;;;;5073202;28;20466;-83
2021/10/24 13:32:51;;;;;;;3.07;1.97;;;;;;;;;;5071890;28;20438;-84
2021/10/24 13:35:18;;;;;;;4.33;3.17;;;;;;;;;;5072103;28;20432;-84
2021/10/24 13:37:46;;;;;;;3.43;1.80;;;;;;;;;;5073306;28;20489;-83
2021/10/24 13:40:15;;;;;;;5.50;2.33;;;;;;;;;;5073306;28;21061;-84
2021/10/24 13:42:43;;;;;;;5.07;2.30;;;;;;;;;;5073330;28;20461;-83
2021/10/24 13:45:11;;;;;;;4.50;2.37;;;;;;;;;;5071562;28;20446;-83
2021/10/24 13:47:38;;;;;;;4.03;3.10;;;;;;;;;;5071574;28;20447;-82
2021/10/24 13:50:06;;;;;;;6.90;2.40;;;;;;;;;;5072572;28;20469;-83
2021/10/24 13:52:33;;;;;;;2.73;1.50;;;;;;;;;;5073297;28;20438;-84